Time;durP1;ratioP1;P1;durP2;ratioP2;P2;SDS_P1;SDS_P2;PMS_P1;PMS_P2;Temp;Humidity;BMP_temperature;BMP_pressure;BME280_temperature;BME280_humidity;BME280_pressure;Samples;Min_cycle;Max_cycle;Signal;HPM_P1;HPM_P2
2022/02/12 00:00:14;;;;;;;1999.90;999.90;;;;;;;3.76;100.00;163398.59;5014237;28;20085;-67
2022/02/12 00:02:41;;;;;;;1999.90;999.90;;;;;;;3.47;100.00;163323.19;5022505;28;20088;-67
2022/02/12 00:05:08;;;;;;;1999.90;999.90;;;;;;;3.62;100.00;163362.94;5018075;28;20166;-67
2022/02/12 00:07:36;;;;;;;1999.90;999.90;;;;;;;3.67;100.00;163376.63;5016399;28;20408;-67
2022/02/12 00:10:04;;;;;;;1999.90;999.90;;;;;;;3.55;100.00;163342.38;5011539;28;20082;-67
2022/02/12 00:12:30;;;;;;;1999.90;999.90;;;;;;;3.94;100.00;163447.91;5018946;28;20092;-68
2022/02/12 00:14:57;;;;;;;1999.90;999.90;;;;;;;3.92;100.00;163442.44;5026401;28;20076;-67
2022/02/12 00:17:24;;;;;;;1999.90;999.90;;;;;;;4.25;100.00;163528.84;5021924;28;20069;-68
2022/02/12 00:19:50;;;;;;;1999.90;999.90;;;;;;;3.86;100.00;163427.34;5017540;28;20049;-67
2022/02/12 00:22:17;;;;;;;1999.90;999.90;;;;;;;3.53;100.00;163338.28;5018205;28;20407;-67
2022/02/12 00:24:44;;;;;;;1999.90;999.90;;;;;;;3.33;100.00;163286.19;5018861;28;20093;-68
2022/02/12 00:27:10;;;;;;;1999.90;999.90;;;;;;;3.70;100.00;163383.50;5020618;28;20423;-66
2022/02/12 00:29:38;;;;;;;1999.90;999.90;;;;;;;3.40;100.00;163302.66;5027022;28;20069;-67
2022/02/12 00:32:08;;;;;;;1999.90;999.90;;;;;;;3.20;100.00;163249.16;5027607;28;20336;-67
2022/02/12 00:34:35;;;;;;;1999.90;999.90;;;;;;;3.37;100.00;163295.78;5021341;28;20092;-67
2022/02/12 00:37:03;;;;;;;1999.90;999.90;;;;;;;3.29;100.00;163273.81;5016343;28;20077;-66
2022/02/12 00:39:29;;;;;;;1999.90;999.90;;;;;;;3.44;100.00;163314.97;5012275;28;20524;-66
2022/02/12 00:41:56;;;;;;;1999.90;999.90;;;;;;;3.34;100.00;163287.56;5012825;28;20443;-66
2022/02/12 00:44:25;;;;;;;1999.90;999.90;;;;;;;2.89;100.00;163166.94;5010414;28;20069;-66
2022/02/12 00:46:52;;;;;;;1999.90;999.90;;;;;;;2.73;100.00;163125.88;5012658;28;20112;-67
2022/02/12 00:49:19;;;;;;;1999.90;999.90;;;;;;;2.89;100.00;163166.94;5012186;28;20131;-66
2022/02/12 00:51:46;;;;;;;1999.90;999.90;;;;;;;3.25;100.00;163262.91;5011465;28;20058;-67
2022/02/12 00:54:13;;;;;;;1999.90;999.90;;;;;;;3.16;100.00;163240.94;5011878;28;20424;-67
2022/02/12 00:56:39;;;;;;;1999.90;999.90;;;;;;;3.29;100.00;163273.81;5014624;28;20049;-67
2022/02/12 00:59:08;;;;;;;1999.90;999.90;;;;;;;3.49;100.00;163327.31;5011004;28;20587;-67
2022/02/12 01:01:35;;;;;;;1999.90;999.90;;;;;;;3.29;100.00;163273.81;5016110;28;20140;-67
2022/02/12 01:04:03;;;;;;;1999.90;999.90;;;;;;;3.38;100.00;163298.53;5012589;28;20347;-67
2022/02/12 01:06:31;;;;;;;1999.90;999.90;;;;;;;3.13;100.00;163232.72;5009992;28;20096;-68
2022/02/12 01:08:58;;;;;;;1999.90;999.90;;;;;;;3.14;100.00;163234.09;5011638;28;20113;-67
2022/02/12 01:11:25;;;;;;;1999.90;999.90;;;;;;;3.03;100.00;163205.31;5014791;28;20076;-68
2022/02/12 01:13:52;;;;;;;1999.90;999.90;;;;;;;3.07;100.00;163214.94;5014668;28;20084;-67
2022/02/12 01:16:18;;;;;;;1999.90;999.90;;;;;;;3.13;100.00;163232.72;5010550;28;20085;-67
2022/02/12 01:18:45;;;;;;;1999.90;999.90;;;;;;;3.12;100.00;163229.97;5011495;28;20077;-67
2022/02/12 01:21:11;;;;;;;1999.90;999.90;;;;;;;2.80;100.00;163145.06;5011364;28;20508;-67
2022/02/12 01:23:38;;;;;;;1999.90;999.90;;;;;;;2.93;100.00;163179.31;5010519;28;20101;-67
2022/02/12 01:26:04;;;;;;;1999.90;999.90;;;;;;;2.69;100.00;163114.91;5009398;28;20143;-66
2022/02/12 01:28:31;;;;;;;1999.90;999.90;;;;;;;2.98;100.00;163191.66;5012668;28;20053;-67
2022/02/12 01:30:57;;;;;;;1999.90;999.90;;;;;;;2.96;100.00;163186.13;5010793;28;20564;-67
2022/02/12 01:33:24;;;;;;;1999.90;999.90;;;;;;;2.87;100.00;163161.47;5012010;28;20098;-67
2022/02/12 01:35:50;;;;;;;1999.90;999.90;;;;;;;2.79;100.00;163140.94;5011338;28;20100;-67
2022/02/12 01:38:17;;;;;;;1999.90;999.90;;;;;;;2.67;100.00;163108.09;5014137;28;20045;-67
2022/02/12 01:40:45;;;;;;;1999.90;999.90;;;;;;;2.88;100.00;163165.59;5008777;28;20042;-67
2022/02/12 01:43:13;;;;;;;1999.90;999.90;;;;;;;2.77;100.00;163136.84;5014360;28;20089;-67
2022/02/12 01:45:40;;;;;;;1999.90;999.90;;;;;;;2.71;100.00;163120.41;5010233;28;20088;-67
2022/02/12 01:48:07;;;;;;;1999.90;999.90;;;;;;;3.03;100.00;163205.31;5014784;28;20091;-67
2022/02/12 01:50:34;;;;;;;1999.90;999.90;;;;;;;3.24;100.00;163261.50;5009289;28;20076;-67
2022/02/12 01:53:01;;;;;;;1999.90;999.90;;;;;;;3.30;100.00;163276.56;5012767;28;20081;-67
2022/02/12 01:55:27;;;;;;;1999.90;999.90;;;;;;;3.05;100.00;163210.84;5012223;28;20088;-67
2022/02/12 01:57:54;;;;;;;1999.90;999.90;;;;;;;2.98;100.00;163191.66;5015579;28;20468;-67
2022/02/12 02:00:22;;;;;;;1999.90;999.90;;;;;;;2.69;100.00;163114.91;5010291;28;20042;-67
2022/02/12 02:02:49;;;;;;;1999.90;999.90;;;;;;;2.47;100.00;163057.38;5012520;28;20041;-67
2022/02/12 02:05:17;;;;;;;1999.90;999.90;;;;;;;2.42;100.00;163042.31;5011960;28;20440;-67
2022/02/12 02:07:44;;;;;;;1999.90;999.90;;;;;;;2.86;100.00;163158.72;5011109;28;20101;-67
2022/02/12 02:10:12;;;;;;;1999.90;999.90;;;;;;;2.44;100.00;163049.19;5009652;28;20129;-67
2022/02/12 02:12:39;;;;;;;1999.90;999.90;;;;;;;2.30;100.00;163010.81;5010200;28;20087;-66
2022/02/12 02:15:07;;;;;;;1999.90;999.90;;;;;;;1.96;100.00;162920.44;5009463;28;20064;-67
2022/02/12 02:17:34;;;;;;;1999.90;999.90;;;;;;;2.05;100.00;162945.06;5011790;28;20054;-67
2022/02/12 02:20:03;;;;;;;1999.90;999.90;;;;;;;2.55;100.00;163077.94;5012061;28;20081;-65
2022/02/12 02:22:37;;;;;;;1999.90;999.90;;;;;;;2.70;100.00;163116.28;5010964;28;20073;-66
2022/02/12 02:25:04;;;;;;;1999.90;999.90;;;;;;;2.17;100.00;162975.22;5008412;28;20449;-66
2022/02/12 02:27:31;;;;;;;1999.90;999.90;;;;;;;2.09;100.00;162954.69;5010073;28;20078;-65
2022/02/12 02:29:57;;;;;;;1999.90;999.90;;;;;;;2.22;100.00;162990.28;5008919;28;20095;-65
2022/02/12 02:32:24;;;;;;;1999.90;999.90;;;;;;;2.50;100.00;163064.25;5011470;28;20458;-66
2022/02/12 02:34:53;;;;;;;1999.90;999.90;;;;;;;2.69;100.00;163114.91;5009901;28;20145;-66
2022/02/12 02:37:22;;;;;;;1999.90;999.90;;;;;;;2.77;100.00;163136.84;5010818;28;20046;-66
2022/02/12 02:39:49;;;;;;;1999.90;999.90;;;;;;;2.63;100.00;163099.88;5007501;28;20073;-67
2022/02/12 02:42:16;;;;;;;1999.90;999.90;;;;;;;2.35;100.00;163024.50;5010453;28;20399;-68
2022/02/12 02:44:42;;;;;;;1999.90;999.90;;;;;;;2.36;100.00;163025.88;5008148;28;20053;-68
2022/02/12 02:49:54;;;;;;;1999.90;999.90;;;;;;;2.95;100.00;163184.78;5017667;28;20280;-68
2022/02/12 02:57:51;;;;;;;1999.90;999.90;;;;;;;2.46;100.00;163054.63;5012151;28;20093;-68
2022/02/12 03:00:18;;;;;;;1999.90;999.90;;;;;;;2.49;100.00;163061.50;5009518;28;20361;-68
2022/02/12 03:02:46;;;;;;;1999.90;999.90;;;;;;;2.26;100.00;162999.84;5008394;28;20567;-68
2022/02/12 03:05:12;;;;;;;1999.90;999.90;;;;;;;2.22;100.00;162988.88;5007169;28;20123;-68
2022/02/12 03:07:39;;;;;;;1999.90;999.90;;;;;;;2.17;100.00;162975.22;5012228;28;20270;-68
2022/02/12 03:10:08;;;;;;;1999.90;999.90;;;;;;;1.55;100.00;162812.31;5010255;28;20417;-67
2022/02/12 03:12:34;;;;;;;1999.90;999.90;;;;;;;1.43;100.00;162779.47;5011148;28;20044;-67
2022/02/12 03:15:04;;;;;;;1999.90;999.90;;;;;;;1.65;100.00;162838.28;5009201;28;20722;-68
2022/02/12 03:17:31;;;;;;;1999.90;999.90;;;;;;;1.56;100.00;162813.66;5011566;28;20077;-67
2022/02/12 03:19:57;;;;;;;1999.90;999.90;;;;;;;1.68;100.00;162846.53;5007461;28;20077;-67
2022/02/12 03:22:24;;;;;;;1999.90;999.90;;;;;;;2.06;100.00;162947.81;5008567;28;20073;-68
2022/02/12 03:24:51;;;;;;;1999.90;999.90;;;;;;;1.81;100.00;162879.38;5009827;28;20093;-67
2022/02/12 03:27:17;;;;;;;1999.90;999.90;;;;;;;1.80;100.00;162876.63;5009744;28;20399;-67
2022/02/12 03:29:43;;;;;;;1999.90;999.90;;;;;;;1.67;100.00;162843.78;5008877;28;20734;-67
2022/02/12 03:32:10;;;;;;;1999.90;999.90;;;;;;;1.85;100.00;162890.34;5007519;28;20061;-67
2022/02/12 03:34:37;;;;;;;1999.90;999.90;;;;;;;1.84;100.00;162887.59;5008087;28;20078;-67
2022/02/12 03:37:03;;;;;;;1999.90;999.90;;;;;;;1.92;100.00;162909.47;5011127;28;20045;-67
2022/02/12 03:39:30;;;;;;;1999.90;999.90;;;;;;;2.06;100.00;162946.47;5010233;28;20046;-67
2022/02/12 03:41:56;;;;;;;1999.90;999.90;;;;;;;2.12;100.00;162962.91;5044019;28;20077;-67
2022/02/12 03:44:22;;;;;;;1999.90;999.90;;;;;;;2.46;100.00;163054.63;5009893;28;20085;-67
2022/02/12 03:46:49;;;;;;;1999.90;999.90;;;;;;;2.56;100.00;163079.28;5008692;28;20069;-68
2022/02/12 03:49:15;;;;;;;1999.90;999.90;;;;;;;2.45;100.00;163051.88;5007914;28;20431;-67
2022/02/12 03:51:42;;;;;;;1999.90;999.90;;;;;;;2.05;100.00;162945.06;5009121;28;20046;-67
2022/02/12 03:54:08;;;;;;;1999.90;999.90;;;;;;;2.29;100.00;163009.47;5013512;28;20073;-68
2022/02/12 03:56:35;;;;;;;1999.90;999.90;;;;;;;2.49;100.00;163060.09;5025966;28;20484;-68
2022/02/12 03:59:01;;;;;;;1999.90;999.90;;;;;;;2.75;100.00;163131.31;5021776;28;20092;-68
2022/02/12 04:01:28;;;;;;;1999.90;999.90;;;;;;;2.56;100.00;163080.69;5012596;28;20132;-67
2022/02/12 04:03:54;;;;;;;1999.90;999.90;;;;;;;2.29;100.00;163008.06;5017757;28;20508;-67
2022/02/12 04:06:21;;;;;;;1999.90;999.90;;;;;;;1.91;100.00;162908.13;5013057;28;20077;-67
2022/02/12 04:08:47;;;;;;;1999.90;999.90;;;;;;;2.61;100.00;163094.34;5020036;28;20081;-67
2022/02/12 04:11:14;;;;;;;1999.90;999.90;;;;;;;2.80;100.00;163145.06;5013479;28;20073;-68
2022/02/12 04:13:41;;;;;;;1999.90;999.90;;;;;;;2.85;100.00;163156.03;5022178;28;20085;-68
2022/02/12 04:16:08;;;;;;;1999.90;999.90;;;;;;;2.80;100.00;163145.06;5016602;28;20107;-68
2022/02/12 04:18:34;;;;;;;1999.90;999.90;;;;;;;2.81;100.00;163147.81;5021124;28;20112;-68
2022/02/12 04:21:00;;;;;;;1999.90;999.90;;;;;;;2.80;100.00;163145.06;5014088;28;20160;-67
2022/02/12 04:23:27;;;;;;;1999.90;999.90;;;;;;;2.92;100.00;163176.56;5028940;28;20138;-68
2022/02/12 04:25:53;;;;;;;1999.90;999.90;;;;;;;2.75;100.00;163131.31;5020698;28;20085;-68
2022/02/12 04:28:20;;;;;;;1999.90;999.90;;;;;;;2.61;100.00;163094.34;5025776;28;20440;-68
2022/02/12 04:30:47;;;;;;;1999.90;999.90;;;;;;;2.89;100.00;163166.94;5011982;28;20363;-68
2022/02/12 04:33:14;;;;;;;1999.90;999.90;;;;;;;3.04;100.00;163208.06;5021274;28;20127;-68
2022/02/12 04:35:40;;;;;;;1999.90;999.90;;;;;;;2.80;100.00;163145.06;5016535;28;20081;-68
2022/02/12 04:38:07;;;;;;;1999.90;999.90;;;;;;;2.78;100.00;163139.59;5029163;28;20081;-68
2022/02/12 04:40:34;;;;;;;1999.90;999.90;;;;;;;2.95;100.00;163183.44;5026323;28;20505;-68
2022/02/12 04:43:00;;;;;;;1999.90;999.90;;;;;;;2.98;100.00;163191.66;5015557;28;20198;-68
2022/02/12 04:45:29;;;;;;;1999.90;999.90;;;;;;;2.68;100.00;163110.78;5015483;28;20170;-67
2022/02/12 04:47:55;;;;;;;1999.90;999.90;;;;;;;2.60;100.00;163090.25;5014900;28;20081;-67
2022/02/12 04:50:22;;;;;;;1999.90;999.90;;;;;;;2.33;100.00;163017.69;5019844;28;20072;-67
2022/02/12 04:52:49;;;;;;;1999.90;999.90;;;;;;;2.69;100.00;163114.91;5016101;28;20045;-67
2022/02/12 04:55:16;;;;;;;1999.90;999.90;;;;;;;2.46;100.00;163053.28;5023980;28;20051;-68
2022/02/12 04:57:42;;;;;;;1999.90;999.90;;;;;;;2.46;100.00;163053.28;5013170;28;20144;-68
2022/02/12 05:00:09;;;;;;;1999.90;999.90;;;;;;;2.14;100.00;162967.00;5018089;28;20473;-68
2022/02/12 05:02:36;;;;;;;1999.90;999.90;;;;;;;2.25;100.00;162997.16;5015702;28;20226;-67
2022/02/12 05:05:03;;;;;;;1999.90;999.90;;;;;;;2.52;100.00;163068.38;5015439;28;20092;-67
2022/02/12 05:07:30;;;;;;;1999.90;999.90;;;;;;;2.41;100.00;163040.97;5024319;28;20391;-68
2022/02/12 05:09:56;;;;;;;1999.90;999.90;;;;;;;2.51;100.00;163066.97;5021035;28;20081;-68
2022/02/12 05:12:22;;;;;;;1999.90;999.90;;;;;;;2.67;100.00;163109.44;5017794;28;20085;-67
2022/02/12 05:14:49;;;;;;;1999.90;999.90;;;;;;;2.92;99.38;163175.22;5017752;28;20111;-68
2022/02/12 05:17:16;;;;;;;1999.90;999.90;;;;;;;3.12;97.80;163229.97;5019751;28;20509;-68
2022/02/12 05:19:43;;;;;;;1999.90;999.90;;;;;;;2.76;98.32;163134.09;5014307;28;20054;-67
2022/02/12 05:22:10;;;;;;;1999.90;999.90;;;;;;;2.76;98.50;163134.09;5022323;28;20049;-67
2022/02/12 05:24:38;;;;;;;1999.90;999.90;;;;;;;2.88;97.72;163164.25;5018339;28;20065;-67
2022/02/12 05:27:05;;;;;;;1999.90;999.90;;;;;;;2.95;97.38;163183.44;5013552;28;20053;-67
2022/02/12 05:29:31;;;;;;;1999.90;999.90;;;;;;;2.98;96.56;163191.66;5022777;28;20084;-67
2022/02/12 05:31:58;;;;;;;1999.90;999.90;;;;;;;2.78;97.23;163139.59;5027726;28;20042;-67
2022/02/12 05:34:24;;;;;;;1999.90;999.90;;;;;;;2.79;97.50;163142.28;5024859;28;20434;-67
2022/02/12 05:36:51;;;;;;;1999.90;999.90;;;;;;;2.82;96.58;163150.50;5015100;28;20418;-68
2022/02/12 05:39:17;;;;;;;1999.90;999.90;;;;;;;2.55;97.14;163077.94;5011607;28;20081;-67
2022/02/12 05:41:44;;;;;;;1999.90;999.90;;;;;;;2.55;97.40;163076.56;5015479;28;20057;-67
2022/02/12 05:44:10;;;;;;;1999.90;999.90;;;;;;;2.31;98.33;163012.16;5020759;28;20391;-67
2022/02/12 05:46:37;;;;;;;1999.90;999.90;;;;;;;2.16;98.78;162973.88;5019443;28;20127;-67
2022/02/12 05:49:06;;;;;;;1999.90;999.90;;;;;;;2.47;98.02;163057.38;5013003;28;20085;-67
2022/02/12 05:51:33;;;;;;;1999.90;999.90;;;;;;;2.41;98.17;163039.56;5023359;28;20045;-67
2022/02/12 05:54:02;;;;;;;1999.90;999.90;;;;;;;2.53;97.73;163071.06;5018514;28;20451;-67
2022/02/12 05:56:30;;;;;;;1999.90;999.90;;;;;;;2.46;97.74;163054.63;5013092;28;20134;-67
2022/02/12 05:58:57;;;;;;;1999.90;999.90;;;;;;;2.17;99.05;162975.22;5022115;28;20046;-67
2022/02/12 06:01:25;;;;;;;1999.90;999.90;;;;;;;2.30;98.38;163010.81;5024007;28;20078;-67
2022/02/12 06:03:51;;;;;;;1999.90;999.90;;;;;;;2.44;97.55;163047.78;5013322;28;20511;-67
2022/02/12 06:06:18;;;;;;;1999.90;999.90;;;;;;;2.28;98.04;163005.34;5023603;28;20107;-67
2022/02/12 06:08:45;;;;;;;1999.90;999.90;;;;;;;2.29;97.89;163008.06;5013173;28;20050;-67
2022/02/12 06:11:11;;;;;;;1999.90;999.90;;;;;;;2.58;96.86;163086.16;5012420;28;20050;-67
2022/02/12 06:13:38;;;;;;;1999.90;999.90;;;;;;;2.72;95.95;163123.09;5017881;28;20097;-67
2022/02/12 06:16:05;;;;;;;1999.90;999.90;;;;;;;2.41;96.57;163039.56;5015807;28;20049;-67
2022/02/12 06:18:32;;;;;;;1999.90;999.90;;;;;;;2.55;96.21;163077.94;5017660;28;20092;-67
2022/02/12 06:20:58;;;;;;;1999.90;999.90;;;;;;;2.63;96.01;163098.47;5014451;28;20099;-67
2022/02/12 06:23:25;;;;;;;1999.90;999.90;;;;;;;2.73;95.29;163124.50;5017569;28;20095;-67
2022/02/12 06:25:51;;;;;;;1999.90;999.90;;;;;;;2.72;95.00;163123.09;5015865;28;20077;-67
2022/02/12 06:28:18;;;;;;;1999.90;999.90;;;;;;;2.46;95.76;163053.28;5014899;28;20046;-67
2022/02/12 06:30:44;;;;;;;1999.90;999.90;;;;;;;2.47;95.93;163056.00;5015140;28;20574;-68
2022/02/12 06:33:11;;;;;;;1999.90;999.90;;;;;;;2.63;95.83;163098.47;5013788;28;20083;-68
2022/02/12 06:35:37;;;;;;;1999.90;999.90;;;;;;;2.72;95.12;163123.09;5017428;28;20057;-67
2022/02/12 06:38:04;;;;;;;1999.90;999.90;;;;;;;2.77;94.70;163136.84;5013907;28;20388;-68
2022/02/12 06:40:30;;;;;;;1999.90;999.90;;;;;;;2.75;94.63;163129.97;5022295;28;20088;-67
2022/02/12 06:42:57;;;;;;;1999.90;999.90;;;;;;;2.85;94.58;163157.38;5016917;28;20077;-67
2022/02/12 06:45:28;;;;;;;1999.90;999.90;;;;;;;2.90;94.23;163171.06;5015386;28;20128;-68
2022/02/12 06:47:55;;;;;;;1999.90;999.90;;;;;;;2.92;94.34;163175.22;5013916;28;20054;-68
2022/02/12 06:50:21;;;;;;;1999.90;999.90;;;;;;;2.88;94.51;163164.25;5017109;28;20069;-68
2022/02/12 06:52:48;;;;;;;1999.90;999.90;;;;;;;2.76;94.38;163132.72;5011997;28;20419;-68
2022/02/12 06:55:14;;;;;;;1999.90;999.90;;;;;;;2.69;95.27;163113.53;5017466;28;20624;-68
2022/02/12 06:57:41;;;;;;;1999.90;999.90;;;;;;;2.90;94.87;163169.69;5027728;28;20477;-68
2022/02/12 07:00:08;;;;;;;1999.90;999.90;;;;;;;2.67;94.69;163109.44;5020333;28;20084;-68
2022/02/12 07:02:34;;;;;;;1999.90;999.90;;;;;;;2.82;95.10;163150.50;5024513;28;20293;-68
2022/02/12 07:05:01;;;;;;;1999.90;999.90;;;;;;;2.87;95.46;163162.84;5009957;28;20081;-68
2022/02/12 07:07:27;;;;;;;1999.90;999.90;;;;;;;2.82;95.95;163150.50;5015643;28;20499;-67
2022/02/12 07:09:54;;;;;;;1999.90;999.90;;;;;;;2.91;95.87;163172.47;5024779;28;20120;-67
2022/02/12 07:12:21;;;;;;;1999.90;999.90;;;;;;;2.82;95.85;163150.50;5021981;28;20100;-67
2022/02/12 07:14:47;;;;;;;1999.90;999.90;;;;;;;2.90;95.79;163169.69;5015410;28;20051;-68
2022/02/12 07:17:15;;;;;;;1999.90;999.90;;;;;;;3.14;95.54;163235.50;5017545;28;20070;-68
2022/02/12 07:19:42;;;;;;;1999.90;999.90;;;;;;;3.17;95.77;163243.72;5016932;28;20072;-68
2022/02/12 07:22:08;;;;;;;1999.90;999.90;;;;;;;3.34;95.50;163288.91;5022985;28;20079;-68
2022/02/12 07:24:35;;;;;;;1999.90;999.90;;;;;;;3.20;95.85;163249.16;5027934;28;20103;-69
2022/02/12 07:27:02;;;;;;;1999.90;999.90;;;;;;;3.45;95.30;163317.69;5019479;28;20077;-66
2022/02/12 07:29:28;;;;;;;1999.90;999.90;;;;;;;3.30;95.50;163277.94;5012354;28;20091;-67
2022/02/12 07:31:54;;;;;;;1999.90;999.90;;;;;;;2.99;96.44;163195.75;5017752;28;20038;-68
2022/02/12 07:34:21;;;;;;;1999.90;999.90;;;;;;;2.92;96.99;163175.22;5010766;28;20073;-68
2022/02/12 07:36:48;;;;;;;1999.90;999.90;;;;;;;2.53;98.32;163071.06;5017864;28;20404;-68
2022/02/12 07:39:15;;;;;;;1999.90;999.90;;;;;;;2.81;97.34;163146.41;5014693;28;20077;-67
2022/02/12 07:41:41;;;;;;;1999.90;999.90;;;;;;;3.07;97.01;163216.28;5024242;28;20049;-68
2022/02/12 07:44:08;;;;;;;1999.90;999.90;;;;;;;3.06;96.27;163213.53;5020697;28;20077;-67
2022/02/12 07:46:34;;;;;;;1999.90;999.90;;;;;;;2.82;97.08;163149.16;5019756;28;20060;-67
2022/02/12 07:49:01;;;;;;;1999.90;999.90;;;;;;;2.54;97.50;163073.81;5015272;28;20049;-67
2022/02/12 07:51:27;;;;;;;1999.90;999.90;;;;;;;2.17;98.59;162975.22;5027389;28;20095;-67
2022/02/12 07:53:54;;;;;;;1999.90;999.90;;;;;;;2.26;99.30;163001.25;5015511;28;20539;-67
2022/02/12 07:56:20;;;;;;;1999.90;999.90;;;;;;;2.31;98.09;163013.56;5022681;28;20405;-67
2022/02/12 07:58:47;;;;;;;1999.90;999.90;;;;;;;2.56;98.44;163079.28;5018424;28;20101;-68
2022/02/12 08:01:14;;;;;;;1999.90;999.90;;;;;;;2.77;97.01;163136.84;5017522;28;20073;-67
2022/02/12 08:03:41;;;;;;;1999.90;999.90;;;;;;;3.06;95.52;163213.53;5021676;28;20046;-67
2022/02/12 08:07:27;;;;;;;1999.90;999.90;;;;;;;3.14;95.67;163234.09;5031622;28;20434;-67
2022/02/12 08:08:55;;;;;;;1999.90;999.90;;;;;;;2.71;95.46;163120.41;5030476;28;20107;-67
2022/02/12 08:11:26;;;;;;;1999.90;999.90;;;;;;;3.16;94.92;163240.94;5018060;28;20053;-68
2022/02/12 08:13:53;;;;;;;1999.90;999.90;;;;;;;2.97;94.00;163188.88;5019070;28;20088;-68
2022/02/12 08:16:20;;;;;;;1999.90;999.90;;;;;;;2.93;94.71;163177.91;5014478;28;20077;-67
2022/02/12 08:18:47;;;;;;;1999.90;999.90;;;;;;;3.27;93.09;163268.38;5017423;28;20046;-68
2022/02/12 08:21:13;;;;;;;1999.90;999.90;;;;;;;3.02;92.42;163202.56;5024057;28;20049;-68
2022/02/12 08:23:40;;;;;;;1999.90;999.90;;;;;;;2.86;92.13;163160.13;5016251;28;20086;-68
2022/02/12 08:26:06;;;;;;;1999.90;999.90;;;;;;;2.74;92.84;163128.63;5025303;28;20088;-68
2022/02/12 08:28:34;;;;;;;1999.90;999.90;;;;;;;3.02;92.32;163202.56;5019020;28;20099;-68
2022/02/12 08:31:00;;;;;;;1999.90;999.90;;;;;;;3.28;91.94;163271.13;5020749;28;20107;-68
2022/02/12 08:33:27;;;;;;;1999.90;999.90;;;;;;;3.09;91.43;163221.75;5018051;28;20390;-68
2022/02/12 08:35:53;;;;;;;1999.90;999.90;;;;;;;3.30;90.97;163276.56;5011523;28;20439;-68
2022/02/12 08:38:20;;;;;;;1999.90;999.90;;;;;;;3.35;90.48;163290.31;5013101;28;20338;-68
2022/02/12 08:40:47;;;;;;;1999.90;999.90;;;;;;;3.65;90.17;163369.81;5013051;28;20482;-68
2022/02/12 08:43:14;;;;;;;1999.90;999.90;;;;;;;3.98;89.25;163458.91;5017753;28;20084;-69
2022/02/12 08:45:41;;;;;;;1999.90;999.90;;;;;;;3.76;89.05;163398.59;5020234;28;20065;-68
2022/02/12 08:48:09;;;;;;;1999.90;999.90;;;;;;;3.64;88.42;163367.03;5018482;28;20058;-67
2022/02/12 08:50:37;;;;;;;1999.90;999.90;;;;;;;3.58;89.35;163350.59;5013471;28;20063;-68
2022/02/12 08:53:05;;;;;;;1999.90;999.90;;;;;;;3.60;88.84;163356.06;5010190;28;20390;-69
2022/02/12 08:55:31;;;;;;;1999.90;999.90;;;;;;;3.84;88.74;163421.88;5013715;28;20510;-69
2022/02/12 08:57:58;;;;;;;1999.90;999.90;;;;;;;3.13;91.15;163231.38;5013882;28;20112;-68
2022/02/12 09:00:24;;;;;;;1999.90;999.90;;;;;;;3.72;89.22;163388.97;5023609;28;20308;-68
2022/02/12 09:03:12;;;;;;;1999.90;999.90;;;;;;;3.38;87.40;163297.13;5018057;28;20219;-67
2022/02/12 09:05:39;;;;;;;1999.90;999.90;;;;;;;3.78;87.81;163405.44;5026076;28;20468;-68
2022/02/12 09:08:05;;;;;;;1999.90;999.90;;;;;;;3.64;87.90;163368.41;5021761;28;20088;-68
2022/02/12 09:10:32;;;;;;;1999.90;999.90;;;;;;;2.52;88.73;163069.72;5021274;28;20151;-69
2022/02/12 09:12:58;;;;;;;1999.90;999.90;;;;;;;2.86;87.57;163158.72;5011250;28;20078;-69
2022/02/12 09:15:25;;;;;;;1999.90;999.90;;;;;;;2.44;87.34;163049.19;5009836;28;20084;-69
2022/02/12 09:17:51;;;;;;;1999.90;999.90;;;;;;;2.67;87.02;163108.09;5024197;28;20057;-69
2022/02/12 09:20:18;;;;;;;1999.90;999.90;;;;;;;3.32;83.56;163283.44;5013639;28;20049;-69
2022/02/12 09:22:45;;;;;;;1999.90;999.90;;;;;;;2.90;83.24;163171.06;5008869;28;20108;-69
2022/02/12 09:25:12;;;;;;;1999.90;999.90;;;;;;;3.06;83.54;163213.53;5010674;28;20057;-69
2022/02/12 09:27:38;;;;;;;1999.90;999.90;;;;;;;3.19;86.82;163247.81;5018411;28;20105;-68
2022/02/12 09:30:08;;;;;;;1999.90;999.90;;;;;;;2.84;88.30;163153.28;5022378;28;21600;-68
2022/02/12 09:32:34;;;;;;;1999.90;999.90;;;;;;;3.11;88.32;163227.28;5010594;28;20077;-68
2022/02/12 09:35:01;;;;;;;1999.90;999.90;;;;;;;3.16;87.73;163239.59;5014632;28;20065;-68
2022/02/12 09:37:27;;;;;;;1999.90;999.90;;;;;;;3.27;88.20;163268.38;5007347;28;20080;-68
2022/02/12 09:39:54;;;;;;;1999.90;999.90;;;;;;;3.27;88.64;163269.72;5008709;28;20091;-68
2022/02/12 09:42:21;;;;;;;1999.90;999.90;;;;;;;3.37;87.04;163294.41;5016831;28;20505;-68
2022/02/12 09:44:48;;;;;;;1999.90;999.90;;;;;;;3.84;85.14;163421.88;5012739;28;20112;-68
2022/02/12 09:47:41;;;;;;;1999.90;999.90;;;;;;;4.16;82.57;163505.53;5013643;28;20073;-69
2022/02/12 09:50:08;;;;;;;1999.90;999.90;;;;;;;4.47;81.27;163589.19;5017481;28;20085;-69
2022/02/12 09:52:36;;;;;;;1999.90;999.90;;;;;;;4.68;79.18;163644.06;5023104;28;20072;-69
2022/02/12 09:55:04;;;;;;;1999.90;999.90;;;;;;;4.38;79.73;163564.50;5044869;28;20045;-69
2022/02/12 09:57:31;;;;;;;1999.90;999.90;;;;;;;4.82;77.32;163682.44;5026520;28;20092;-69
2022/02/12 09:59:59;;;;;;;1999.90;999.90;;;;;;;5.08;79.45;163751.06;5020295;28;20131;-68
2022/02/12 10:02:26;;;;;;;1999.90;999.90;;;;;;;5.36;77.64;163826.53;5020834;28;20423;-68
2022/02/12 10:05:25;;;;;;;1999.90;999.90;;;;;;;6.07;75.95;164014.63;5015534;28;20099;-68
2022/02/12 10:08:01;;;;;;;1999.90;999.90;;;;;;;5.58;74.81;163884.16;5015273;28;20042;-68
2022/02/12 10:10:30;;;;;;;1999.90;999.90;;;;;;;5.33;71.38;163816.91;5015219;28;20042;-69
2022/02/12 10:13:12;;;;;;;1999.90;999.90;;;;;;;5.63;71.40;163897.91;5023808;28;20111;-68
2022/02/12 10:15:59;;;;;;;1999.90;999.90;;;;;;;6.09;70.39;164020.09;5018617;28;20291;-68
2022/02/12 10:18:31;;;;;;;1999.90;999.90;;;;;;;6.09;72.33;164021.53;5022725;28;20085;-66
2022/02/12 10:21:01;;;;;;;1999.90;999.90;;;;;;;6.68;69.59;164178.06;5018441;28;20505;-67
2022/02/12 10:23:30;;;;;;;1999.90;999.90;;;;;;;6.29;70.25;164073.69;5016411;28;20046;-67
2022/02/12 10:26:02;;;;;;;1999.90;999.90;;;;;;;6.33;69.24;164084.69;5014279;28;20467;-67
2022/02/12 10:28:38;;;;;;;1999.90;999.90;;;;;;;5.79;70.33;163941.84;5010970;28;20111;-67
2022/02/12 10:31:05;;;;;;;1999.90;999.90;;;;;;;5.39;73.01;163833.38;5014606;28;20053;-67
2022/02/12 10:33:41;;;;;;;1999.90;999.90;;;;;;;4.57;74.30;163616.59;5010510;28;20359;-67
2022/02/12 10:36:13;;;;;;;1999.90;999.90;;;;;;;4.81;72.80;163679.72;5010454;28;20050;-67
2022/02/12 10:38:44;;;;;;;1999.90;999.90;;;;;;;5.39;72.44;163834.78;5016617;28;20583;-68
2022/02/12 10:41:14;;;;;;;1999.90;999.90;;;;;;;5.41;71.78;163838.88;5010648;28;20366;-68
2022/02/12 10:43:43;;;;;;;1999.90;999.90;;;;;;;6.09;71.88;164020.09;5010846;28;20127;-68
2022/02/12 10:46:10;;;;;;;1999.90;999.90;;;;;;;4.75;75.93;163664.63;5012072;28;20129;-67
2022/02/12 10:48:38;;;;;;;1999.90;999.90;;;;;;;5.21;72.41;163786.75;5023119;28;20107;-68
2022/02/12 10:51:14;;;;;;;1999.90;999.90;;;;;;;4.27;72.01;163535.66;5008814;28;20081;-67
2022/02/12 10:53:58;;;;;;;1999.90;999.90;;;;;;;5.14;73.39;163767.53;5011182;28;20427;-67
2022/02/12 10:57:00;;;;;;;1999.90;999.90;;;;;;;5.48;75.00;163858.09;5023013;28;20049;-68
2022/02/12 10:59:28;;;;;;;1999.90;999.90;;;;;;;5.24;75.12;163794.97;5019804;28;20437;-67